Weather History for Carmi, IL

Change the Weather History Date:

Sunday, May 12, 2013

  Actual Average (KEVV) Record (KEVV)
Temperature  
Mean Temperature 51 °F 64 °F  
Max Temperature 61 °F 76 °F 90 °F (1902)
Min Temperature 41 °F 53 °F 37 °F (1981)
Degree Days  
Heating Degree Days 14 3  
Month to date heating degree days 49  
Since 1 July heating degree days 4504  
Cooling Degree Days 0 3  
Month to date cooling degree days 23  
Year to date cooling degree days 50  
Growing Degree Days 1 (Base 50)    
Moisture  
Dew Point 37 °F    
Average Humidity 59    
Maximum Humidity 89    
Minimum Humidity 34    
Precipitation  
Precipitation 0.00 in 0.19 in 3.15 in (1959)
Month to date precipitation 2.09  
Year to date precipitation 16.97  
Snow  
Snow 0.00 in 0.00 in - ()
Month to date snowfall 0.0  
Since 1 July snowfall 11.8  
Snow Depth -    
Sea Level Pressure  
Sea Level Pressure 30.17 in    
Wind  
Wind Speed 7 mph (WNW)    
Max Wind Speed 20 mph    
Max Gust Speed 23 mph    
Visibility 10 miles    
Events      
T = Trace of Precipitation, MM = Missing Value Source: NWS Daily Summary

Daily Weather History Graph

Daily Weather History Graph

Search for Another Location

Airport:

Trip Planner

Search our weather history database for the weather conditions in past years. The results will help you decide how hot, cold, wet, or windy it might be!

Date:

Astronomy

May. 12, 2013 Rise Set
Actual Time 5:44 AM CDT 7:53 PM CDT
Civil Twilight 5:15 AM CDT 8:23 PM CDT
Nautical Twilight 4:39 AM CDT 8:59 PM CDT
Astronomical Twilight 4:00 AM CDT 9:38 PM CDT
Moon 7:39 AM CDT (5/12) 10:20 PM CDT (5/12)
Length of Visible Light 15h 08m
Length of Day
14h 09m
Waxing Crescent, 7% of the Moon is Illuminated
May 12
Waxing Crescent
May 17
First Quarter
May 24
Full
May 31
Last Quarter
Jun 8
New

Hourly Weather History & Observations

Time (CDT) Temp. Windchill Dew Point Humidity Pressure Visibility Wind Dir Wind Speed Gust Speed Precip Events Conditions
12:15 AM 48.6 °F - 38.5 °F 68% 30.13 in 10.0 mi NW 4.6 mph - N/A   Clear
12:35 AM 47.7 °F - 39.7 °F 74% 30.13 in 10.0 mi WNW 3.5 mph - N/A   Clear
12:55 AM 46.6 °F - 41.0 °F 81% 30.13 in 10.0 mi West 4.6 mph - N/A   Clear
1:15 AM 46.8 °F - 40.3 °F 78% 30.13 in 10.0 mi WNW 4.6 mph - N/A   Clear
1:35 AM 45.5 °F 43.2 °F 40.5 °F 83% 30.13 in 10.0 mi West 4.6 mph - N/A   Clear
1:55 AM 45.5 °F 41.8 °F 39.2 °F 79% 30.13 in 10.0 mi WNW 6.9 mph - N/A   Clear
2:15 AM 45.0 °F 41.8 °F 39.2 °F 80% 30.13 in 10.0 mi NW 5.8 mph - N/A   Clear
2:35 AM 44.8 °F 41.0 °F 38.7 °F 79% 30.13 in 10.0 mi NW 6.9 mph - N/A   Clear
2:55 AM 44.6 °F 42.2 °F 38.8 °F 80% 30.13 in 10.0 mi WNW 4.6 mph - N/A   Clear
3:15 AM 43.7 °F 40.3 °F 39.4 °F 85% 30.13 in 10.0 mi WNW 5.8 mph - N/A   Clear
3:35 AM 43.3 °F 39.9 °F 38.7 °F 84% 30.13 in 10.0 mi WNW 5.8 mph - N/A   Clear
3:55 AM 43.7 °F 41.1 °F 38.5 °F 82% 30.13 in 10.0 mi NW 4.6 mph - N/A   Clear
4:15 AM 43.3 °F 39.9 °F 38.3 °F 82% 30.13 in 10.0 mi NW 5.8 mph - N/A   Clear
4:35 AM 43.2 °F 39.7 °F 37.8 °F 81% 30.13 in 10.0 mi NW 5.8 mph - N/A   Clear
4:55 AM 42.4 °F 39.6 °F 38.1 °F 85% 30.13 in 10.0 mi WNW 4.6 mph - N/A   Clear
5:15 AM 42.6 °F 39.0 °F 37.9 °F 83% 30.14 in 10.0 mi West 5.8 mph - N/A   Clear
5:35 AM 42.8 °F 40.1 °F 38.3 °F 84% 30.15 in 10.0 mi WNW 4.6 mph - N/A   Clear
5:55 AM 42.4 °F 40.7 °F 38.5 °F 86% 30.15 in 10.0 mi West 3.5 mph - N/A   Clear
6:15 AM 41.9 °F 40.0 °F 37.8 °F 85% 30.16 in 10.0 mi WNW 3.5 mph - N/A   Clear
6:35 AM 43.7 °F 40.3 °F 38.5 °F 82% 30.16 in 10.0 mi NW 5.8 mph - N/A   Clear
6:55 AM 45.7 °F 42.7 °F 38.8 °F 77% 30.17 in 10.0 mi WNW 5.8 mph - N/A   Clear
7:15 AM 47.3 °F - 38.7 °F 72% 30.18 in 10.0 mi WNW 6.9 mph - N/A   Clear
7:35 AM 48.4 °F - 38.7 °F 69% 30.18 in 10.0 mi NW 4.6 mph - N/A   Clear
7:55 AM 49.3 °F - 37.2 °F 63% 30.19 in 10.0 mi NW 8.1 mph - N/A   Clear
8:15 AM 50.9 °F - 37.8 °F 61% 30.19 in 10.0 mi NW 6.9 mph - N/A   Clear
8:35 AM 52.2 °F - 34.2 °F 50% 30.20 in 10.0 mi NNW 12.7 mph - N/A   Clear
8:55 AM 53.1 °F - 33.8 °F 48% 30.20 in 10.0 mi NNW 9.2 mph - N/A   Clear
9:15 AM 54.0 °F - 33.4 °F 46% 30.20 in 10.0 mi NW 10.4 mph - N/A   Clear
9:35 AM 54.7 °F - 32.7 °F 43% 30.20 in 10.0 mi NW 15.0 mph 18.4 mph N/A   Clear
9:55 AM 55.2 °F - 32.0 °F 41% 30.21 in 10.0 mi NNW 9.2 mph 17.3 mph N/A   Clear
10:15 AM 55.6 °F - 32.2 °F 41% 30.21 in 10.0 mi WNW 13.8 mph - N/A   Clear
10:35 AM 55.6 °F - 31.6 °F 40% 30.21 in 10.0 mi WNW 10.4 mph 21.9 mph N/A   Clear
10:55 AM 55.9 °F - 31.5 °F 39% 30.21 in 10.0 mi NW 6.9 mph 16.1 mph N/A   Clear
11:15 AM 56.7 °F - 33.4 °F 42% 30.21 in 10.0 mi NNW 12.7 mph 18.4 mph N/A   Clear
11:35 AM 56.5 °F - 33.1 °F 41% 30.21 in 10.0 mi WNW 10.4 mph - N/A   Clear
11:55 AM 57.4 °F - 33.4 °F 40% 30.21 in 10.0 mi NNW 6.9 mph 17.3 mph N/A   Clear
12:15 PM 58.6 °F - 34.5 °F 40% 30.20 in 10.0 mi NW 15.0 mph 20.7 mph N/A   Clear
12:35 PM 57.7 °F - 35.1 °F 43% 30.20 in 10.0 mi WNW 16.1 mph 21.9 mph N/A   Clear
12:55 PM 58.8 °F - 34.5 °F 40% 30.20 in 10.0 mi WNW 13.8 mph 17.3 mph N/A   Clear
1:15 PM 59.2 °F - 35.1 °F 40% 30.20 in 10.0 mi WNW 12.7 mph 23.0 mph N/A   Clear
1:35 PM 59.7 °F - 35.2 °F 40% 30.19 in 10.0 mi WNW 10.4 mph 16.1 mph N/A   Clear
1:55 PM 59.9 °F - 35.1 °F 39% 30.19 in 10.0 mi West 8.1 mph 18.4 mph N/A   Clear
2:15 PM 60.3 °F - 35.2 °F 39% 30.18 in 10.0 mi NNW 8.1 mph - N/A   Clear
2:35 PM 60.8 °F - 35.6 °F 39% 30.18 in 10.0 mi WNW 13.8 mph 21.9 mph N/A   Clear
2:55 PM 61.2 °F - 34.9 °F 37% 30.18 in 10.0 mi West 15.0 mph 18.4 mph N/A   Clear
3:15 PM 61.3 °F - 34.7 °F 37% 30.17 in 10.0 mi WNW 19.6 mph 23.0 mph N/A   Clear
3:35 PM 61.5 °F - 34.7 °F 37% 30.16 in 10.0 mi WNW 10.4 mph 17.3 mph N/A   Clear
3:55 PM 61.5 °F - 35.2 °F 37% 30.15 in 10.0 mi West 16.1 mph 20.7 mph N/A   Scattered Clouds
4:15 PM 61.7 °F - 34.5 °F 36% 30.15 in 10.0 mi WNW 12.7 mph - N/A   Clear
4:35 PM 61.3 °F - 33.3 °F 35% 30.15 in 10.0 mi West 9.2 mph 19.6 mph N/A   Clear
4:55 PM 61.5 °F - 33.1 °F 34% 30.15 in 10.0 mi West 13.8 mph 20.7 mph N/A   Scattered Clouds
5:15 PM 60.8 °F - 33.6 °F 36% 30.15 in 10.0 mi West 16.1 mph 19.6 mph N/A   Scattered Clouds
5:35 PM 60.8 °F - 33.8 °F 36% 30.15 in 10.0 mi West 10.4 mph 16.1 mph N/A   Clear
5:55 PM 60.8 °F - 34.3 °F 37% 30.15 in 10.0 mi WNW 13.8 mph - N/A   Clear
6:15 PM 60.8 °F - 33.1 °F 35% 30.14 in 10.0 mi WNW 10.4 mph - N/A   Scattered Clouds
6:35 PM 59.7 °F - 35.2 °F 40% 30.14 in 10.0 mi WNW 10.4 mph - N/A   Scattered Clouds
6:55 PM 59.2 °F - 34.2 °F 39% 30.14 in 10.0 mi WNW 10.4 mph - N/A   Clear
7:15 PM 57.7 °F - 34.3 °F 41% 30.15 in 10.0 mi West 8.1 mph - N/A   Clear
7:35 PM 57.0 °F - 36.9 °F 47% 30.15 in 10.0 mi WNW 9.2 mph - N/A   Clear
7:55 PM 54.5 °F - 39.2 °F 56% 30.15 in 10.0 mi WNW 6.9 mph - N/A   Clear
8:15 PM 53.6 °F - 41.2 °F 63% 30.15 in 10.0 mi West 4.6 mph - N/A   Clear
8:35 PM 52.9 °F - 41.4 °F 65% 30.16 in 10.0 mi West 3.5 mph - N/A   Clear
8:55 PM 52.7 °F - 40.5 °F 63% 30.17 in 10.0 mi WNW 3.5 mph - N/A   Clear
9:15 PM 52.3 °F - 39.9 °F 63% 30.17 in 10.0 mi WNW 3.5 mph - N/A   Clear
9:35 PM 51.4 °F - 40.1 °F 65% 30.18 in 10.0 mi Calm Calm - N/A   Clear
9:55 PM 50.5 °F - 42.4 °F 74% 30.18 in 10.0 mi Calm Calm - N/A   Clear
10:15 PM 50.0 °F - 40.5 °F 70% 30.18 in 10.0 mi Calm Calm - N/A   Clear
10:35 PM 48.6 °F - 42.8 °F 80% 30.18 in 10.0 mi Calm Calm - N/A   Clear
10:55 PM 48.2 °F - 42.8 °F 82% 30.18 in 10.0 mi Calm Calm - N/A   Clear
11:15 PM 47.5 °F - 43.7 °F 87% 30.18 in 10.0 mi Calm Calm - N/A   Clear
11:35 PM 47.3 °F - 43.5 °F 87% 30.18 in 10.0 mi Calm Calm - N/A   Clear
11:55 PM 46.8 °F - 43.7 °F 89% 30.18 in 10.0 mi Calm Calm - N/A   Clear